createdAt,value
2018-11-20T00:00:11.798Z,35.70
2018-11-20T00:03:11.998Z,37.33
2018-11-20T00:06:14.488Z,42.53
2018-11-20T00:09:14.557Z,44.20
2018-11-20T00:12:14.152Z,38.03
2018-11-20T00:15:10.829Z,40.33
2018-11-20T00:18:11.186Z,45.37
2018-11-20T00:21:11.059Z,38.43
2018-11-20T00:24:16.635Z,38.70
2018-11-20T00:27:16.753Z,40.20
2018-11-20T00:30:19.824Z,36.30
2018-11-20T00:33:19.718Z,30.60
2018-11-20T00:36:13.435Z,37.73
2018-11-20T00:39:03.480Z,36.30
2018-11-20T00:41:51.885Z,34.60
2018-11-20T00:44:52.220Z,38.00
2018-11-20T00:47:52.100Z,40.50
2018-11-20T00:50:54.903Z,33.33
2018-11-20T00:53:54.878Z,39.90
2018-11-20T00:56:55.052Z,36.10
2018-11-20T00:59:55.293Z,36.07
2018-11-20T01:02:55.357Z,40.47
2018-11-20T01:05:55.604Z,40.07
2018-11-20T01:08:52.694Z,39.17
2018-11-20T01:11:52.968Z,35.37
2018-11-20T01:14:47.768Z,35.33
2018-11-20T01:17:50.167Z,39.07
2018-11-20T01:20:50.199Z,33.93
2018-11-20T01:23:50.227Z,35.50
2018-11-20T01:26:45.525Z,39.37
2018-11-20T01:29:50.963Z,38.17
2018-11-20T01:32:56.982Z,39.50
2018-11-20T01:35:55.734Z,37.93
2018-11-20T01:38:55.876Z,34.70
2018-11-20T01:42:02.072Z,38.00
2018-11-20T01:44:56.683Z,37.00
2018-11-20T01:47:56.920Z,38.10
2018-11-20T01:51:03.392Z,39.20
2018-11-20T01:54:00.937Z,35.67
2018-11-20T01:57:00.696Z,34.30
2018-11-20T01:59:49.515Z,35.70
2018-11-20T02:02:49.746Z,38.50
2018-11-20T02:05:49.417Z,40.30
2018-11-20T02:08:49.505Z,38.37
2018-11-20T02:11:49.176Z,40.07
2018-11-20T02:14:39.482Z,36.67
2018-11-20T02:17:39.294Z,39.00
2018-11-20T02:20:39.096Z,36.87
2018-11-20T02:23:45.484Z,37.13
2018-11-20T02:26:45.515Z,38.73
2018-11-20T02:29:45.404Z,36.77
2018-11-20T02:32:41.779Z,43.20
2018-11-20T02:35:41.952Z,38.50
2018-11-20T02:38:48.053Z,38.10
2018-11-20T02:41:48.231Z,44.63
2018-11-20T02:44:47.830Z,39.40
2018-11-20T02:47:47.985Z,39.07
2018-11-20T02:50:48.162Z,36.83
2018-11-20T02:53:46.658Z,41.73
2018-11-20T02:56:46.027Z,38.13
2018-11-20T02:59:46.049Z,36.50
2018-11-20T03:02:48.787Z,36.47
2018-11-20T03:05:51.662Z,32.97
2018-11-20T03:08:46.956Z,33.40
2018-11-20T03:11:49.963Z,32.40
2018-11-20T03:14:50.152Z,31.77
2018-11-20T03:17:52.757Z,37.23
2018-11-20T03:20:44.167Z,36.33
2018-11-20T03:23:49.534Z,37.63
2018-11-20T03:26:49.627Z,37.07
2018-11-20T03:29:49.838Z,34.27
2018-11-20T03:32:49.842Z,34.57
2018-11-20T03:35:49.576Z,32.80
2018-11-20T03:38:49.659Z,33.17
2018-11-20T03:41:49.441Z,29.93
2018-11-20T03:44:49.412Z,31.83
2018-11-20T03:47:49.768Z,30.70
2018-11-20T03:50:41.813Z,31.60
2018-11-20T03:53:36.884Z,30.32
2018-11-20T03:56:36.626Z,30.80
2018-11-20T03:59:36.683Z,29.77
2018-11-20T04:02:42.922Z,29.90
2018-11-20T04:05:40.289Z,35.28
2018-11-20T04:08:40.348Z,25.60
2018-11-20T04:11:38.099Z,28.90
2018-11-20T04:14:37.944Z,31.33
2018-11-20T04:17:37.815Z,30.37
2018-11-20T04:20:38.116Z,26.90
2018-11-20T04:23:38.247Z,27.53
2018-11-20T04:26:44.433Z,30.77
2018-11-20T04:29:44.845Z,28.37
2018-11-20T04:32:44.980Z,28.97
2018-11-20T04:35:35.953Z,28.57
2018-11-20T04:38:28.044Z,26.30
2018-11-20T04:41:19.242Z,29.50
2018-11-20T04:44:19.184Z,28.33
2018-11-20T04:47:15.964Z,31.70
2018-11-20T04:50:03.469Z,27.67
2018-11-20T04:52:53.173Z,30.10
2018-11-20T04:55:52.869Z,25.97
2018-11-20T04:58:44.234Z,28.53
2018-11-20T05:01:44.060Z,33.20
2018-11-20T05:04:44.131Z,33.83
2018-11-20T05:07:40.095Z,33.87
2018-11-20T05:10:39.777Z,27.37
2018-11-20T05:13:39.770Z,29.30
2018-11-20T05:16:42.721Z,25.00
2018-11-20T05:19:42.487Z,28.97
2018-11-20T05:22:38.739Z,28.90
2018-11-20T05:25:38.722Z,27.43
2018-11-20T05:28:38.755Z,26.60
2018-11-20T05:31:31.667Z,24.43
2018-11-20T05:34:31.269Z,28.53
2018-11-20T05:37:34.351Z,28.27
2018-11-20T05:40:34.654Z,26.83
2018-11-20T05:43:34.295Z,23.80
2018-11-20T05:46:40.681Z,24.30
2018-11-20T05:49:40.333Z,27.40
2018-11-20T05:52:40.514Z,21.87
2018-11-20T05:55:40.687Z,24.10
2018-11-20T05:58:40.862Z,25.00
2018-11-20T06:01:41.107Z,22.77
2018-11-20T06:04:46.523Z,22.53
2018-11-20T06:07:37.680Z,21.90
2018-11-20T06:10:43.875Z,21.03
2018-11-20T06:13:44.189Z,21.53
2018-11-20T06:16:36.585Z,22.97
2018-11-20T06:19:31.759Z,22.77
2018-11-20T06:22:31.951Z,23.40
2018-11-20T06:25:32.139Z,25.80
2018-11-20T06:28:38.080Z,20.20
2018-11-20T06:31:40.729Z,20.20
2018-11-20T06:34:34.324Z,23.97
2018-11-20T06:37:31.393Z,19.83
2018-11-20T06:40:34.300Z,25.07
2018-11-20T06:43:33.901Z,22.73
2018-11-20T06:46:34.053Z,23.60
2018-11-20T06:49:34.048Z,22.70
2018-11-20T06:52:33.669Z,21.20
2018-11-20T06:55:33.194Z,24.17
2018-11-20T06:58:32.706Z,16.90
2018-11-20T07:01:32.515Z,17.93
2018-11-20T07:04:32.366Z,16.30
2018-11-20T07:07:33.250Z,16.33
2018-11-20T07:10:32.482Z,16.60
2018-11-20T07:13:35.304Z,17.20
2018-11-20T07:16:34.660Z,14.50
2018-11-20T07:19:34.839Z,13.13
2018-11-20T07:22:34.537Z,13.00
2018-11-20T07:25:34.847Z,19.50
2018-11-20T07:28:34.759Z,12.80
2018-11-20T07:31:34.558Z,15.77
2018-11-20T07:34:34.277Z,17.98
2018-11-20T07:37:36.859Z,13.40
2018-11-20T07:40:24.830Z,14.40
2018-11-20T07:46:20.549Z,14.93
2018-11-20T07:49:27.959Z,16.00
2018-11-20T07:52:27.618Z,15.53
2018-11-20T07:55:27.779Z,14.90
2018-11-20T07:58:27.962Z,13.90
2018-11-20T08:01:27.846Z,15.40
2018-11-20T08:04:27.427Z,13.70
2018-11-20T08:07:27.512Z,14.53
2018-11-20T08:10:27.490Z,16.57
2018-11-20T08:16:41.498Z,14.77
2018-11-20T08:23:03.078Z,14.13
2018-11-20T08:26:09.063Z,14.57
2018-11-20T08:29:08.886Z,13.03
2018-11-20T08:32:09.007Z,14.60
2018-11-20T08:35:09.491Z,14.63
2018-11-20T08:38:09.859Z,13.27
2018-11-20T08:41:08.203Z,12.43
2018-11-20T08:44:07.639Z,13.60
2018-11-20T08:47:07.827Z,12.03
2018-11-20T08:50:13.931Z,12.07
2018-11-20T08:53:13.638Z,15.00
2018-11-20T08:59:31.820Z,14.90
2018-11-20T09:02:32.179Z,33.20
2018-11-20T09:05:32.287Z,11.97
2018-11-20T09:08:32.490Z,11.40
2018-11-20T09:11:32.742Z,13.70
2018-11-20T09:14:38.895Z,12.87
2018-11-20T09:17:38.614Z,14.27
2018-11-20T09:20:45.092Z,13.80
2018-11-20T09:26:41.946Z,11.43
2018-11-20T09:29:41.750Z,12.30
2018-11-20T09:32:41.364Z,11.07
2018-11-20T09:35:47.106Z,15.13
2018-11-20T09:38:47.115Z,11.17
2018-11-20T09:41:41.016Z,11.10
2018-11-20T09:44:41.411Z,11.53
2018-11-20T09:47:41.330Z,12.37
2018-11-20T09:50:47.571Z,11.10
2018-11-20T09:53:47.506Z,14.57
2018-11-20T09:56:47.630Z,14.47
2018-11-20T09:59:47.601Z,11.03
2018-11-20T10:02:47.286Z,11.80
2018-11-20T10:05:42.774Z,9.70
2018-11-20T10:08:45.845Z,12.27
2018-11-20T10:11:48.407Z,10.30
2018-11-20T10:14:48.892Z,11.77
2018-11-20T10:17:48.672Z,12.00
2018-11-20T10:20:51.525Z,11.13
2018-11-20T10:23:51.052Z,10.10
2018-11-20T10:26:50.973Z,9.97
2018-11-20T10:29:50.896Z,10.20
2018-11-20T10:32:54.207Z,10.27
2018-11-20T10:35:47.387Z,8.50
2018-11-20T10:38:47.280Z,12.60
2018-11-20T10:41:47.629Z,13.37
2018-11-20T10:44:47.703Z,10.73
2018-11-20T10:51:13.257Z,9.10
2018-11-20T10:54:13.346Z,12.80
2018-11-20T11:00:35.370Z,11.60
2018-11-20T11:03:35.274Z,8.30
2018-11-20T11:06:34.896Z,10.07
2018-11-20T11:09:19.296Z,10.40
2018-11-20T11:12:25.219Z,9.53
2018-11-20T11:15:24.872Z,11.03
2018-11-20T11:18:24.556Z,7.50
2018-11-20T11:21:24.064Z,10.13
2018-11-20T11:24:23.916Z,8.53
2018-11-20T11:27:23.890Z,11.30
2018-11-20T11:30:26.452Z,9.43
2018-11-20T11:33:28.804Z,9.40
2018-11-20T11:36:25.689Z,13.17
2018-11-20T11:39:25.456Z,8.70
2018-11-20T11:42:25.457Z,8.90
2018-11-20T11:45:25.603Z,11.63
2018-11-20T11:48:25.268Z,9.17
2018-11-20T11:51:31.201Z,8.53
2018-11-20T11:54:31.327Z,7.43
2018-11-20T11:57:24.055Z,10.53
2018-11-20T12:00:24.088Z,8.80
2018-11-20T12:03:14.189Z,7.87
2018-11-20T12:06:07.070Z,10.80
2018-11-20T12:09:07.269Z,8.10
2018-11-20T12:12:07.211Z,8.87
2018-11-20T12:15:07.275Z,9.37
2018-11-20T12:18:06.950Z,12.20
2018-11-20T12:21:07.035Z,9.37
2018-11-20T12:24:12.945Z,8.70
2018-11-20T12:27:12.948Z,8.60
2018-11-20T12:30:18.702Z,9.53
2018-11-20T12:33:18.832Z,9.20
2018-11-20T12:36:18.676Z,10.83
2018-11-20T12:39:24.721Z,8.97
2018-11-20T12:42:30.295Z,10.40
2018-11-20T12:45:34.171Z,10.30
2018-11-20T12:48:30.285Z,9.70
2018-11-20T12:51:29.718Z,11.20
2018-11-20T12:54:29.890Z,10.53
2018-11-20T12:57:29.226Z,9.87
2018-11-20T13:00:28.674Z,9.00
2018-11-20T13:03:28.699Z,17.10
2018-11-20T13:06:26.838Z,7.90
2018-11-20T13:09:27.243Z,23.83
2018-11-20T13:12:28.834Z,7.70
2018-11-20T13:15:25.263Z,9.50
2018-11-20T13:18:20.463Z,9.70
2018-11-20T13:21:20.721Z,8.67
2018-11-20T13:24:20.801Z,9.07
2018-11-20T13:27:20.865Z,10.10
2018-11-20T13:30:20.834Z,12.60
2018-11-20T13:33:23.441Z,10.30
2018-11-20T13:36:20.832Z,11.37
2018-11-20T13:42:13.453Z,10.43
2018-11-20T13:45:18.635Z,18.63
2018-11-20T13:48:22.571Z,9.70
2018-11-20T13:51:22.124Z,10.43
2018-11-20T13:54:22.349Z,9.97
2018-11-20T13:57:22.440Z,10.67
2018-11-20T14:00:17.439Z,8.80
2018-11-20T14:03:17.540Z,11.07
2018-11-20T14:06:23.419Z,9.17
2018-11-20T14:09:23.738Z,8.80
2018-11-20T14:12:23.471Z,10.13
2018-11-20T14:15:23.536Z,11.73
2018-11-20T14:18:23.102Z,12.20
2018-11-20T14:21:23.167Z,11.00
2018-11-20T14:24:23.333Z,8.90
2018-11-20T14:27:23.540Z,9.80
2018-11-20T14:30:23.097Z,8.97
2018-11-20T14:33:25.721Z,12.00
2018-11-20T14:36:26.364Z,10.13
2018-11-20T14:39:29.664Z,7.90
2018-11-20T14:42:29.211Z,8.40
2018-11-20T14:45:35.595Z,10.00
2018-11-20T14:48:28.964Z,8.57
2018-11-20T14:51:28.743Z,8.73
2018-11-20T14:54:28.629Z,9.30
2018-11-20T14:57:26.120Z,9.40
2018-11-20T15:00:26.053Z,8.53
2018-11-20T15:03:29.670Z,8.60
2018-11-20T15:06:29.864Z,7.30
2018-11-20T15:09:29.395Z,8.87
2018-11-20T15:12:35.239Z,9.73
2018-11-20T15:15:35.245Z,10.50
2018-11-20T15:18:34.927Z,8.63
2018-11-20T15:21:34.952Z,8.87
2018-11-20T15:24:34.780Z,7.63
2018-11-20T15:27:34.941Z,10.00
2018-11-20T15:30:34.530Z,7.40
2018-11-20T15:33:34.120Z,11.27
2018-11-20T15:36:33.963Z,9.80
2018-11-20T15:39:36.439Z,9.90
2018-11-20T15:42:36.385Z,15.93
2018-11-20T15:45:35.903Z,8.53
2018-11-20T15:48:35.703Z,6.90
2018-11-20T15:51:35.421Z,9.17
2018-11-20T15:54:38.053Z,9.83
2018-11-20T15:57:38.246Z,8.17
2018-11-20T16:00:38.043Z,9.50
2018-11-20T16:03:38.096Z,7.90
2018-11-20T16:06:37.847Z,9.00
2018-11-20T16:09:37.602Z,8.43
2018-11-20T16:12:37.932Z,8.40
2018-11-20T16:15:38.185Z,7.07
2018-11-20T16:18:41.205Z,13.73
2018-11-20T16:21:40.877Z,8.10
2018-11-20T16:24:40.621Z,7.50
2018-11-20T16:27:40.640Z,8.67
2018-11-20T16:30:40.221Z,7.90
2018-11-20T16:33:34.651Z,8.70
2018-11-20T16:36:34.654Z,8.87
2018-11-20T16:39:34.251Z,9.27
2018-11-20T16:42:27.898Z,9.07
2018-11-20T16:45:27.696Z,10.80
2018-11-20T16:48:27.258Z,10.67
2018-11-20T16:51:27.112Z,7.77
2018-11-20T16:54:27.211Z,10.40
2018-11-20T16:57:27.372Z,7.00
2018-11-20T17:00:33.648Z,8.13
2018-11-20T17:03:33.567Z,10.63
2018-11-20T17:06:27.820Z,10.50
2018-11-20T17:09:27.559Z,10.07
2018-11-20T17:12:28.039Z,8.77
2018-11-20T17:15:27.581Z,10.80
2018-11-20T17:18:26.011Z,11.30
2018-11-20T17:21:25.699Z,10.63
2018-11-20T17:24:25.575Z,8.13
2018-11-20T17:27:30.867Z,7.27
2018-11-20T17:30:30.385Z,12.40
2018-11-20T17:33:30.412Z,12.47
2018-11-20T17:36:30.587Z,10.93
2018-11-20T17:39:33.164Z,8.60
2018-11-20T17:42:33.111Z,9.10
2018-11-20T17:45:32.670Z,9.83
2018-11-20T17:48:32.258Z,11.90
2018-11-20T17:51:32.638Z,8.90
2018-11-20T17:54:38.093Z,12.17
2018-11-20T17:57:44.266Z,14.03
2018-11-20T18:00:44.219Z,14.10
2018-11-20T18:03:44.293Z,11.87
2018-11-20T18:06:44.490Z,18.03
2018-11-20T18:09:47.312Z,13.07
2018-11-20T18:12:46.991Z,11.03
2018-11-20T18:15:47.072Z,11.10
2018-11-20T18:18:47.105Z,10.70
2018-11-20T18:21:46.441Z,10.83
2018-11-20T18:24:46.352Z,10.17
2018-11-20T18:27:45.924Z,10.80
2018-11-20T18:30:45.653Z,10.57
2018-11-20T18:33:41.399Z,10.30
2018-11-20T18:36:47.639Z,17.83
2018-11-20T18:39:41.469Z,11.40
2018-11-20T18:42:41.365Z,10.20
2018-11-20T18:45:41.363Z,10.90
2018-11-20T18:48:41.131Z,10.53
2018-11-20T18:54:56.626Z,10.40
2018-11-20T18:57:56.522Z,9.70
2018-11-20T19:00:56.592Z,13.13
2018-11-20T19:03:59.777Z,8.90
2018-11-20T19:07:04.993Z,19.73
2018-11-20T19:10:05.282Z,11.43
2018-11-20T19:13:05.130Z,9.90
2018-11-20T19:16:04.840Z,13.17
2018-11-20T19:19:04.225Z,11.20
2018-11-20T19:22:04.097Z,11.40
2018-11-20T19:25:04.146Z,10.70
2018-11-20T19:28:03.990Z,10.20
2018-11-20T19:31:04.023Z,10.90
2018-11-20T19:34:03.667Z,12.60
2018-11-20T19:37:03.927Z,10.47
2018-11-20T19:40:03.937Z,9.40
2018-11-20T19:42:58.653Z,8.90
2018-11-20T19:45:58.973Z,10.37
2018-11-20T19:49:02.106Z,15.60
2018-11-20T19:52:02.306Z,9.97
2018-11-20T19:55:08.005Z,9.27
2018-11-20T20:01:08.138Z,9.40
2018-11-20T20:04:08.235Z,11.00
2018-11-20T20:07:07.850Z,10.20
2018-11-20T20:10:16.243Z,12.13
2018-11-20T20:13:07.841Z,12.53
2018-11-20T20:16:10.661Z,11.70
2018-11-20T20:19:13.268Z,11.97
2018-11-20T20:22:16.438Z,10.80
2018-11-20T20:25:16.076Z,12.30
2018-11-20T20:28:18.576Z,11.13
2018-11-20T20:31:15.320Z,9.93
2018-11-20T20:34:21.152Z,11.07
2018-11-20T20:37:21.202Z,11.80
2018-11-20T20:40:21.032Z,11.33
2018-11-20T20:43:20.819Z,12.20
2018-11-20T20:46:17.063Z,13.23
2018-11-20T20:49:16.538Z,11.20
2018-11-20T20:52:02.831Z,12.60
2018-11-20T20:55:02.772Z,11.23
2018-11-20T20:58:08.901Z,12.33
2018-11-20T21:01:09.310Z,12.83
2018-11-20T21:04:01.080Z,12.80
2018-11-20T21:06:58.440Z,10.87
2018-11-20T21:09:58.653Z,11.70
2018-11-20T21:12:58.187Z,11.47
2018-11-20T21:15:58.135Z,15.30
2018-11-20T21:18:56.685Z,11.80
2018-11-20T21:21:56.468Z,10.23
2018-11-20T21:24:56.554Z,12.97
2018-11-20T21:27:56.308Z,12.17
2018-11-20T21:31:02.803Z,12.27
2018-11-20T21:34:02.758Z,12.80
2018-11-20T21:37:02.806Z,14.13
2018-11-20T21:40:08.888Z,10.93
2018-11-20T21:43:09.058Z,10.17
2018-11-20T21:46:09.300Z,11.97
2018-11-20T21:49:08.876Z,11.20
2018-11-20T21:52:08.789Z,11.80
2018-11-20T21:55:04.899Z,14.17
2018-11-20T21:58:04.790Z,10.53
2018-11-20T22:01:07.296Z,10.73
2018-11-20T22:07:14.167Z,12.80
2018-11-20T22:10:13.930Z,11.70
2018-11-20T22:13:16.622Z,12.90
2018-11-20T22:16:16.057Z,11.83
2018-11-20T22:19:16.376Z,11.30
2018-11-20T22:22:15.955Z,12.03
2018-11-20T22:25:16.389Z,12.93
2018-11-20T22:28:16.861Z,14.00
2018-11-20T22:31:19.863Z,11.10
2018-11-20T22:34:19.922Z,10.63
2018-11-20T22:37:19.511Z,11.27
2018-11-20T22:40:19.112Z,12.57
2018-11-20T22:43:13.161Z,13.67
2018-11-20T22:46:12.645Z,11.80
2018-11-20T22:49:12.949Z,10.93
2018-11-20T22:52:12.353Z,10.60
2018-11-20T22:55:12.545Z,10.17
2018-11-20T22:58:12.365Z,12.13
2018-11-20T23:01:12.593Z,14.83
2018-11-20T23:04:12.374Z,12.97
2018-11-20T23:07:12.136Z,10.40
2018-11-20T23:09:53.763Z,11.07
2018-11-20T23:12:34.515Z,15.30
2018-11-20T23:15:16.190Z,10.07
2018-11-20T23:17:57.406Z,9.17
2018-11-20T23:20:38.433Z,12.77
2018-11-20T23:23:19.943Z,11.77
2018-11-20T23:26:01.080Z,12.10
2018-11-20T23:28:42.487Z,11.20
2018-11-20T23:31:23.570Z,9.97
2018-11-20T23:34:04.960Z,14.57
2018-11-20T23:36:46.505Z,21.03
2018-11-20T23:39:27.854Z,21.83
2018-11-20T23:42:08.919Z,31.37
2018-11-20T23:44:50.271Z,25.60
2018-11-20T23:47:31.742Z,36.00
2018-11-20T23:50:14.357Z,34.37
2018-11-20T23:52:55.928Z,33.43
2018-11-20T23:55:37.066Z,35.50
2018-11-20T23:58:17.797Z,24.83
